Time;durP1;ratioP1;P1;durP2;ratioP2;P2;SDS_P1;SDS_P2;PMS_P1;PMS_P2;Temp;Humidity;BMP_temperature;BMP_pressure;BME280_temperature;BME280_humidity;BME280_pressure;Samples;Min_cycle;Max_cycle;Signal;HPM_P1;HPM_P2
2023/06/25 00:00:44;;;;;;;2.77;2.20;;;19.10;95.80;;;;;;5093944;28;20447;-79
2023/06/25 00:03:12;;;;;;;3.07;2.00;;;19.10;96.30;;;;;;5093857;28;20566;-79
2023/06/25 00:05:39;;;;;;;4.20;2.40;;;19.00;96.10;;;;;;5093878;28;20440;-79
2023/06/25 00:08:06;;;;;;;2.60;2.07;;;19.00;96.10;;;;;;5093787;28;20538;-79
2023/06/25 00:10:32;;;;;;;3.83;2.60;;;18.90;96.40;;;;;;5093304;28;20447;-79
2023/06/25 00:12:59;;;;;;;4.43;2.00;;;18.90;96.70;;;;;;5093818;28;20444;-79
2023/06/25 00:15:27;;;;;;;2.40;1.90;;;18.90;96.70;;;;;;5093433;28;20947;-79
2023/06/25 00:17:54;;;;;;;3.80;2.03;;;18.80;96.70;;;;;;5093618;28;20497;-79
2023/06/25 00:20:23;;;;;;;2.70;2.27;;;18.80;97.00;;;;;;5093689;28;20446;-79
2023/06/25 00:22:50;;;;;;;1.77;1.67;;;18.80;97.00;;;;;;5093141;28;20506;-79
2023/06/25 00:25:18;;;;;;;2.47;1.50;;;18.70;97.30;;;;;;5093599;28;20448;-79
2023/06/25 00:27:47;;;;;;;2.90;1.80;;;18.80;97.70;;;;;;5093181;28;20472;-79
2023/06/25 00:30:14;;;;;;;1.53;1.43;;;18.70;98.10;;;;;;5093554;28;20448;-79
2023/06/25 00:32:41;;;;;;;3.67;2.63;;;18.70;97.90;;;;;;5093218;28;20935;-79
2023/06/25 00:35:09;;;;;;;4.83;1.93;;;18.70;98.40;;;;;;5093536;28;20474;-79
2023/06/25 00:37:38;;;;;;;2.13;1.70;;;18.70;98.80;;;;;;5093385;28;20522;-79
2023/06/25 00:40:08;;;;;;;2.40;1.63;;;18.70;98.90;;;;;;5093411;28;20461;-79
2023/06/25 00:42:41;;;;;;;1.63;1.53;;;18.70;98.90;;;;;;5093336;28;20483;-79
2023/06/25 00:45:10;;;;;;;2.60;1.77;;;18.60;98.80;;;;;;5093168;28;20420;-79
2023/06/25 00:47:37;;;;;;;2.80;2.13;;;18.60;98.80;;;;;;5092974;28;20471;-79
2023/06/25 00:50:05;;;;;;;2.40;1.57;;;18.60;98.70;;;;;;5093380;28;20452;-79
2023/06/25 00:52:32;;;;;;;2.03;1.67;;;18.60;98.80;;;;;;5093323;28;20448;-79
2023/06/25 00:55:00;;;;;;;1.40;1.30;;;18.50;99.30;;;;;;5093020;28;20966;-79
2023/06/25 00:57:27;;;;;;;3.23;2.50;;;18.50;99.40;;;;;;5092975;28;20455;-80
2023/06/25 00:59:55;;;;;;;2.60;2.10;;;18.40;99.80;;;;;;5093258;28;20456;-80
2023/06/25 01:02:26;;;;;;;3.80;2.83;;;18.40;99.90;;;;;;5093195;28;20440;-80
2023/06/25 01:05:04;;;;;;;2.63;2.43;;;18.30;99.90;;;;;;5093797;28;20437;-80
2023/06/25 01:07:36;;;;;;;4.17;2.43;;;18.30;99.90;;;;;;5093211;28;20459;-80
2023/06/25 01:10:05;;;;;;;2.30;1.97;;;18.20;99.90;;;;;;5093228;28;20459;-80
2023/06/25 01:12:32;;;;;;;4.30;2.57;;;18.20;99.90;;;;;;5093159;28;20497;-79
2023/06/25 01:14:59;;;;;;;2.33;2.10;;;18.10;99.90;;;;;;5093116;28;20471;-80
2023/06/25 01:17:26;;;;;;;2.03;1.90;;;18.10;99.90;;;;;;5092719;28;20479;-80
2023/06/25 01:19:53;;;;;;;5.63;2.67;;;18.10;99.90;;;;;;5092762;28;20816;-80
2023/06/25 01:22:27;;;;;;;4.90;2.47;;;18.10;99.90;;;;;;5095397;28;20480;-79
2023/06/25 01:24:53;;;;;;;4.53;2.20;;;18.10;99.90;;;;;;5096627;28;20427;-79
2023/06/25 01:27:21;;;;;;;2.37;2.00;;;18.00;99.90;;;;;;5096777;28;20467;-79
2023/06/25 01:29:48;;;;;;;3.87;2.57;;;18.00;99.90;;;;;;5096795;28;20448;-79
2023/06/25 01:32:15;;;;;;;2.17;2.00;;;17.90;99.90;;;;;;5096455;28;20947;-79
2023/06/25 01:34:42;;;;;;;3.97;2.80;;;17.90;99.90;;;;;;5096727;28;20439;-79
2023/06/25 01:37:08;;;;;;;3.43;2.60;;;17.90;99.90;;;;;;5096598;28;20436;-79
2023/06/25 01:39:37;;;;;;;2.77;2.50;;;17.80;99.90;;;;;;5096585;28;20435;-80
2023/06/25 01:42:04;;;;;;;3.70;2.60;;;17.90;99.90;;;;;;5096582;28;20448;-80
2023/06/25 01:44:32;;;;;;;3.50;2.50;;;17.80;99.90;;;;;;5097011;28;20479;-80
2023/06/25 01:46:59;;;;;;;4.10;2.33;;;17.80;99.90;;;;;;5096371;28;20503;-80
2023/06/25 01:49:27;;;;;;;2.47;2.17;;;17.70;99.90;;;;;;5096128;28;20448;-80
2023/06/25 01:51:54;;;;;;;3.93;2.30;;;17.70;99.90;;;;;;5096072;28;20939;-80
2023/06/25 01:54:20;;;;;;;2.97;2.17;;;17.70;99.90;;;;;;5096069;28;20443;-80
2023/06/25 01:56:48;;;;;;;2.30;1.53;;;17.70;99.90;;;;;;5096324;28;20440;-80
2023/06/25 01:59:15;;;;;;;3.87;2.97;;;17.70;99.90;;;;;;5096187;28;20475;-79
2023/06/25 02:01:42;;;;;;;3.40;2.23;;;17.60;99.90;;;;;;5096204;28;20815;-79
2023/06/25 02:04:09;;;;;;;4.37;2.20;;;17.60;99.90;;;;;;5096093;28;20480;-79
2023/06/25 02:06:36;;;;;;;1.77;1.57;;;17.50;99.90;;;;;;5095827;28;20514;-79
2023/06/25 02:09:03;;;;;;;3.97;2.47;;;17.50;99.90;;;;;;5095997;28;20505;-79
2023/06/25 02:11:29;;;;;;;3.80;1.90;;;17.50;99.90;;;;;;5095719;28;20837;-79
2023/06/25 02:13:57;;;;;;;2.83;1.70;;;17.50;99.90;;;;;;5095679;28;20446;-79
2023/06/25 02:16:24;;;;;;;2.87;2.27;;;17.40;99.90;;;;;;5095590;28;20447;-79
2023/06/25 02:18:53;;;;;;;2.40;2.10;;;17.40;99.90;;;;;;5095852;28;20866;-79
2023/06/25 02:21:19;;;;;;;4.57;1.73;;;17.40;99.90;;;;;;5095537;28;20479;-79
2023/06/25 02:23:46;;;;;;;3.73;2.50;;;17.40;99.90;;;;;;5095440;28;20460;-79
2023/06/25 02:26:13;;;;;;;2.57;1.77;;;17.40;99.90;;;;;;5095470;28;20444;-79
2023/06/25 02:28:40;;;;;;;3.10;2.33;;;17.30;99.90;;;;;;5095626;28;20475;-79
2023/06/25 02:31:08;;;;;;;4.13;2.73;;;17.30;99.90;;;;;;5095388;28;20936;-79
2023/06/25 02:33:34;;;;;;;2.90;2.10;;;17.30;99.90;;;;;;5095190;28;20811;-80
2023/06/25 02:36:01;;;;;;;5.17;2.50;;;17.30;99.90;;;;;;5095269;28;20975;-80
2023/06/25 02:38:28;;;;;;;4.13;2.07;;;17.20;99.90;;;;;;5095386;28;20471;-80
2023/06/25 02:40:54;;;;;;;3.23;2.63;;;17.20;99.90;;;;;;5095445;28;20440;-80
2023/06/25 02:43:21;;;;;;;3.00;2.40;;;17.20;99.90;;;;;;5094998;28;21022;-80
2023/06/25 02:45:48;;;;;;;2.50;2.10;;;17.20;99.90;;;;;;5095354;28;20522;-79
2023/06/25 02:48:16;;;;;;;2.63;1.90;;;17.20;99.90;;;;;;5095213;28;20476;-79
2023/06/25 02:50:43;;;;;;;1.57;1.47;;;17.20;99.90;;;;;;5095224;28;20448;-79
2023/06/25 02:53:10;;;;;;;7.60;1.63;;;17.20;99.90;;;;;;5095220;28;20444;-80
2023/06/25 02:55:37;;;;;;;2.97;2.00;;;17.30;99.90;;;;;;5095172;28;20455;-80
2023/06/25 02:58:03;;;;;;;2.10;1.63;;;17.30;99.90;;;;;;5094719;28;20971;-80
2023/06/25 03:00:30;;;;;;;3.03;1.93;;;17.30;99.90;;;;;;5095631;28;20436;-80
2023/06/25 03:02:57;;;;;;;2.33;1.90;;;17.30;99.90;;;;;;5095003;28;20448;-80
2023/06/25 03:05:25;;;;;;;2.60;1.73;;;17.30;99.90;;;;;;5094535;28;21051;-80
2023/06/25 03:07:53;;;;;;;2.83;1.80;;;17.30;99.90;;;;;;5094828;28;20463;-80
2023/06/25 03:10:20;;;;;;;2.73;2.20;;;17.20;99.90;;;;;;5094753;28;20440;-79
2023/06/25 03:12:46;;;;;;;2.83;2.20;;;17.20;99.90;;;;;;5094790;28;20456;-79
2023/06/25 03:15:13;;;;;;;2.23;1.90;;;17.20;99.90;;;;;;5094787;28;20827;-79
2023/06/25 03:17:40;;;;;;;4.93;2.10;;;17.20;99.90;;;;;;5094655;28;20464;-79
2023/06/25 03:20:08;;;;;;;2.37;1.80;;;17.20;99.90;;;;;;5095361;28;20767;-80
2023/06/25 03:22:36;;;;;;;3.90;2.00;;;17.20;99.90;;;;;;5094111;28;20480;-80
2023/06/25 03:25:03;;;;;;;2.73;2.50;;;17.20;99.90;;;;;;5094533;28;20486;-80
2023/06/25 03:27:31;;;;;;;4.50;2.67;;;17.10;99.90;;;;;;5094387;28;20468;-79
2023/06/25 03:29:58;;;;;;;3.60;2.27;;;17.10;99.90;;;;;;5094436;28;20797;-79
2023/06/25 03:32:25;;;;;;;2.67;2.03;;;17.10;99.90;;;;;;5094371;28;20448;-79
2023/06/25 03:34:52;;;;;;;3.80;2.10;;;17.00;99.90;;;;;;5094278;28;20471;-79
2023/06/25 03:37:19;;;;;;;3.73;1.93;;;17.00;99.90;;;;;;5094193;28;20464;-79
2023/06/25 03:39:47;;;;;;;1.50;1.40;;;16.90;99.90;;;;;;5094232;28;20428;-79
2023/06/25 03:42:13;;;;;;;3.73;2.07;;;17.00;99.90;;;;;;5094124;28;20448;-79
2023/06/25 03:44:46;;;;;;;2.63;2.23;;;16.90;99.90;;;;;;5092979;28;20991;-79
2023/06/25 03:47:13;;;;;;;3.40;2.20;;;16.90;99.90;;;;;;5094319;28;20795;-80
2023/06/25 03:49:39;;;;;;;3.30;2.07;;;16.90;99.90;;;;;;5094052;28;20448;-80
2023/06/25 03:52:07;;;;;;;4.20;2.50;;;17.00;99.90;;;;;;5093991;28;20443;-80
2023/06/25 03:54:34;;;;;;;4.80;2.30;;;17.00;99.90;;;;;;5094035;28;20797;-79
2023/06/25 03:57:02;;;;;;;2.03;1.67;;;17.00;99.90;;;;;;5093805;28;20846;-79
2023/06/25 03:59:29;;;;;;;3.50;2.57;;;17.00;99.90;;;;;;5093857;28;20831;-79
2023/06/25 04:01:56;;;;;;;2.50;2.30;;;17.10;99.90;;;;;;5093555;28;20951;-79
2023/06/25 04:04:23;;;;;;;2.23;1.83;;;17.10;99.90;;;;;;5093677;28;20484;-79
2023/06/25 04:06:49;;;;;;;2.67;2.47;;;17.10;99.90;;;;;;5093476;28;20449;-79
2023/06/25 04:09:16;;;;;;;3.10;2.80;;;17.10;99.90;;;;;;5093730;28;20468;-79
2023/06/25 04:11:43;;;;;;;3.43;2.33;;;17.10;99.90;;;;;;5093691;28;20443;-79
2023/06/25 04:14:11;;;;;;;6.70;3.27;;;17.20;99.90;;;;;;5093721;28;20447;-79
2023/06/25 04:16:37;;;;;;;4.00;2.50;;;17.20;99.90;;;;;;5093668;28;20779;-79
2023/06/25 04:19:04;;;;;;;3.00;2.50;;;17.20;99.90;;;;;;5093247;28;20467;-79
2023/06/25 04:21:31;;;;;;;3.93;2.20;;;17.20;99.90;;;;;;5093259;28;20484;-79
2023/06/25 04:23:58;;;;;;;2.60;2.40;;;17.30;99.90;;;;;;5093491;28;20477;-79
2023/06/25 04:26:24;;;;;;;3.90;3.03;;;17.30;99.90;;;;;;5093549;28;20428;-79
2023/06/25 04:28:51;;;;;;;2.77;2.53;;;17.30;99.90;;;;;;5093348;28;20463;-79
2023/06/25 04:31:22;;;;;;;3.20;2.97;;;17.40;99.90;;;;;;5093454;28;20459;-79
2023/06/25 04:33:49;;;;;;;4.83;2.03;;;17.40;99.90;;;;;;5093178;28;20900;-79
2023/06/25 04:36:16;;;;;;;2.77;2.53;;;17.50;99.90;;;;;;5093447;28;20451;-79
2023/06/25 04:38:42;;;;;;;3.83;2.37;;;17.50;99.90;;;;;;5093339;28;20460;-79
2023/06/25 04:41:09;;;;;;;5.80;2.60;;;17.60;99.90;;;;;;5093352;28;20447;-79
2023/06/25 04:43:36;;;;;;;3.50;1.90;;;17.60;99.90;;;;;;5093283;28;20459;-79
2023/06/25 04:46:03;;;;;;;4.00;2.57;;;17.60;99.90;;;;;;5092993;28;20826;-79
2023/06/25 04:48:31;;;;;;;5.13;3.10;;;17.60;99.90;;;;;;5092936;28;21014;-79
2023/06/25 04:50:57;;;;;;;3.77;2.20;;;17.60;99.90;;;;;;5093184;28;20464;-79
2023/06/25 04:53:24;;;;;;;4.00;2.60;;;17.60;99.90;;;;;;5093347;28;20440;-79
2023/06/25 04:55:51;;;;;;;2.93;2.00;;;17.70;99.90;;;;;;5095279;28;20451;-79
2023/06/25 04:58:17;;;;;;;5.97;2.33;;;17.70;99.90;;;;;;5097276;28;20459;-79
2023/06/25 05:00:44;;;;;;;3.50;2.23;;;17.80;99.90;;;;;;5097287;28;20452;-79
2023/06/25 05:03:11;;;;;;;3.03;2.70;;;17.80;99.90;;;;;;5097238;28;20447;-79
2023/06/25 05:05:39;;;;;;;2.93;2.50;;;17.90;99.90;;;;;;5096801;28;20479;-79
2023/06/25 05:08:06;;;;;;;2.43;2.00;;;17.90;99.90;;;;;;5096747;28;20566;-79
2023/06/25 05:10:33;;;;;;;2.80;2.00;;;18.00;99.90;;;;;;5096998;28;20835;-79
2023/06/25 05:13:00;;;;;;;3.43;1.90;;;18.10;99.90;;;;;;5097086;28;20443;-79
2023/06/25 05:15:27;;;;;;;2.20;1.77;;;18.20;99.90;;;;;;5096933;28;20858;-80
2023/06/25 05:17:53;;;;;;;3.83;2.33;;;18.30;99.90;;;;;;5096688;28;20475;-80
2023/06/25 05:20:21;;;;;;;4.03;2.37;;;18.40;99.90;;;;;;5096858;28;20444;-79
2023/06/25 05:22:49;;;;;;;2.57;2.27;;;18.50;99.90;;;;;;5096474;28;20479;-79
2023/06/25 05:25:16;;;;;;;3.53;2.43;;;18.60;99.90;;;;;;5096734;28;20574;-79
2023/06/25 05:27:42;;;;;;;3.13;1.97;;;18.70;99.90;;;;;;5096411;28;20471;-79
2023/06/25 05:30:09;;;;;;;4.50;2.60;;;18.80;99.90;;;;;;5096721;28;20466;-79
2023/06/25 05:32:36;;;;;;;3.03;2.57;;;18.90;99.90;;;;;;5096436;28;20948;-79
2023/06/25 05:35:03;;;;;;;4.10;2.37;;;18.90;99.90;;;;;;5096764;28;20440;-79
2023/06/25 05:37:30;;;;;;;3.63;2.30;;;19.00;99.90;;;;;;5096233;28;20470;-79
2023/06/25 05:39:58;;;;;;;2.57;2.00;;;19.00;99.90;;;;;;5096612;28;20455;-80
2023/06/25 05:42:24;;;;;;;2.93;2.20;;;19.20;99.90;;;;;;5096573;28;20811;-80
2023/06/25 05:44:51;;;;;;;2.33;2.13;;;19.30;99.90;;;;;;5096480;28;20480;-79
2023/06/25 05:47:18;;;;;;;2.27;1.80;;;19.40;99.90;;;;;;5096136;28;20470;-80
2023/06/25 05:49:45;;;;;;;2.40;2.20;;;19.60;99.90;;;;;;5096485;28;20451;-80
2023/06/25 05:52:11;;;;;;;2.37;2.17;;;19.70;99.90;;;;;;5096104;28;20935;-80
2023/06/25 05:54:38;;;;;;;2.10;1.93;;;19.80;99.90;;;;;;5096380;28;20435;-80
2023/06/25 05:57:06;;;;;;;2.23;2.00;;;20.00;99.90;;;;;;5095813;28;20447;-80
2023/06/25 05:59:33;;;;;;;2.90;2.60;;;20.20;99.90;;;;;;5096145;28;20444;-80
2023/06/25 06:02:01;;;;;;;2.17;1.90;;;20.40;99.90;;;;;;5096108;28;20454;-80
2023/06/25 06:04:28;;;;;;;2.17;1.40;;;20.60;99.90;;;;;;5095975;28;20567;-80
2023/06/25 06:06:54;;;;;;;2.23;2.03;;;20.70;99.90;;;;;;5095199;28;20823;-80
2023/06/25 06:09:21;;;;;;;2.97;2.20;;;20.80;99.90;;;;;;5095634;28;20947;-80
2023/06/25 06:11:48;;;;;;;2.13;1.93;;;21.00;99.90;;;;;;5095664;28;20447;-80
2023/06/25 06:14:16;;;;;;;3.90;2.03;;;21.10;99.90;;;;;;5095975;28;20443;-80
2023/06/25 06:16:43;;;;;;;2.50;1.97;;;21.30;99.90;;;;;;5095557;28;20938;-80
2023/06/25 06:19:09;;;;;;;6.93;2.43;;;21.40;99.90;;;;;;5095808;28;20546;-80
2023/06/25 06:21:36;;;;;;;4.90;2.00;;;21.50;99.90;;;;;;5095433;28;20482;-80
2023/06/25 06:24:03;;;;;;;2.20;2.00;;;21.60;99.90;;;;;;5095727;28;20447;-80
2023/06/25 06:26:30;;;;;;;2.80;2.00;;;21.90;99.90;;;;;;5095715;28;20474;-80
2023/06/25 06:28:56;;;;;;;2.33;1.87;;;22.30;99.90;;;;;;5095569;28;20502;-80
2023/06/25 06:31:25;;;;;;;3.30;2.90;;;22.60;99.90;;;;;;5095576;28;20807;-80
2023/06/25 06:33:51;;;;;;;2.37;2.17;;;22.90;99.90;;;;;;5095527;28;20201;-80
2023/06/25 06:36:18;;;;;;;4.32;2.40;;;23.40;99.90;;;;;;5095464;28;20209;-80
2023/06/25 06:38:45;;;;;;;1.60;1.50;;;23.70;99.90;;;;;;5095348;28;20218;-80
2023/06/25 06:41:11;;;;;;;1.73;1.25;;;24.00;99.90;;;;;;5095307;28;20197;-80
2023/06/25 06:43:38;;;;;;;2.78;1.48;;;24.50;99.60;;;;;;5095395;28;20205;-80
2023/06/25 06:46:05;;;;;;;3.03;2.30;;;25.10;98.50;;;;;;5095341;28;20210;-81
2023/06/25 06:48:33;;;;;;;2.28;1.95;;;25.60;96.60;;;;;;5095213;28;20218;-81
2023/06/25 06:51:00;;;;;;;1.90;1.80;;;25.80;96.10;;;;;;5095098;28;20673;-81
2023/06/25 06:53:28;;;;;;;2.45;1.65;;;25.80;95.30;;;;;;5095219;28;20209;-81
2023/06/25 06:55:55;;;;;;;2.22;1.80;;;25.80;93.70;;;;;;5095144;28;20202;-81
2023/06/25 06:58:21;;;;;;;2.20;1.67;;;25.60;93.90;;;;;;5095056;28;20229;-81
2023/06/25 07:00:48;;;;;;;1.67;1.58;;;25.40;93.80;;;;;;5094981;28;20286;-81
2023/06/25 07:03:15;;;;;;;2.53;1.80;;;25.20;93.10;;;;;;5094831;28;20565;-81
2023/06/25 07:05:43;;;;;;;2.08;1.95;;;25.10;93.80;;;;;;5094669;28;20224;-81
2023/06/25 07:08:10;;;;;;;2.53;1.40;;;25.10;93.60;;;;;;5094911;28;20225;-81
2023/06/25 07:10:36;;;;;;;2.47;2.38;;;25.20;93.10;;;;;;5094910;28;20207;-81
2023/06/25 07:13:03;;;;;;;1.52;1.20;;;25.20;92.70;;;;;;5094842;28;20201;-80
2023/06/25 07:15:30;;;;;;;1.60;1.50;;;25.30;92.30;;;;;;5094831;28;20201;-81
2023/06/25 07:17:57;;;;;;;2.13;1.52;;;25.20;91.90;;;;;;5094373;28;20224;-81
2023/06/25 07:20:24;;;;;;;2.85;1.75;;;25.30;92.40;;;;;;5094748;28;20201;-81
2023/06/25 07:22:52;;;;;;;3.17;1.70;;;25.30;91.70;;;;;;5094163;28;20233;-81
2023/06/25 07:25:18;;;;;;;2.95;1.95;;;25.40;91.50;;;;;;5094508;28;20228;-81
2023/06/25 07:27:45;;;;;;;1.35;1.27;;;25.40;90.80;;;;;;5094231;28;20712;-80
2023/06/25 07:30:13;;;;;;;2.90;2.10;;;25.60;90.90;;;;;;5094528;28;20201;-81
2023/06/25 07:32:39;;;;;;;1.83;1.70;;;25.80;90.50;;;;;;5094160;28;20192;-81
2023/06/25 07:35:07;;;;;;;2.22;1.80;;;26.00;88.50;;;;;;5094491;28;20189;-81
2023/06/25 07:37:34;;;;;;;2.25;1.75;;;26.10;89.50;;;;;;5094293;28;20217;-81
2023/06/25 07:40:02;;;;;;;3.25;1.63;;;26.20;89.40;;;;;;5094532;28;20634;-81
2023/06/25 07:42:29;;;;;;;1.92;1.65;;;26.30;88.40;;;;;;5094029;28;20664;-81
2023/06/25 07:44:56;;;;;;;2.70;2.30;;;26.40;87.10;;;;;;5094181;28;20226;-81
2023/06/25 07:47:22;;;;;;;2.40;2.13;;;26.50;86.90;;;;;;5094149;28;20229;-81
2023/06/25 07:49:49;;;;;;;1.52;1.38;;;26.60;88.00;;;;;;5094134;28;20212;-81
2023/06/25 07:52:16;;;;;;;1.65;1.55;;;26.90;85.40;;;;;;5093816;28;20668;-81
2023/06/25 07:54:42;;;;;;;1.90;1.35;;;27.10;83.60;;;;;;5094617;28;20201;-81
2023/06/25 07:57:10;;;;;;;2.05;1.80;;;27.10;82.30;;;;;;5093703;28;20208;-81
2023/06/25 07:59:37;;;;;;;2.22;1.65;;;27.20;80.30;;;;;;5094024;28;20205;-81
2023/06/25 08:02:04;;;;;;;1.60;1.10;;;27.30;80.70;;;;;;5093986;28;20211;-82
2023/06/25 08:04:31;;;;;;;1.77;1.67;;;27.30;81.10;;;;;;5093975;28;20202;-81
2023/06/25 08:06:58;;;;;;;1.88;1.38;;;27.50;80.60;;;;;;5093738;28;20271;-81
2023/06/25 08:09:25;;;;;;;3.30;2.05;;;27.50;77.80;;;;;;5093844;28;20208;-80
2023/06/25 08:11:52;;;;;;;1.65;1.55;;;27.70;77.00;;;;;;5093527;28;20680;-83
2023/06/25 08:14:20;;;;;;;1.88;1.77;;;27.90;77.70;;;;;;5093754;28;20212;-82
2023/06/25 08:16:47;;;;;;;1.92;1.67;;;28.30;76.80;;;;;;5093719;28;20205;-82
2023/06/25 08:19:14;;;;;;;1.92;1.42;;;28.80;74.00;;;;;;5093357;28;20226;-81
2023/06/25 08:21:40;;;;;;;1.85;1.75;;;29.30;72.10;;;;;;5093407;28;20237;-81
2023/06/25 08:24:07;;;;;;;1.60;1.50;;;30.00;70.00;;;;;;5093307;28;20556;-81
2023/06/25 08:26:34;;;;;;;2.13;1.92;;;30.80;67.70;;;;;;5093532;28;20222;-81
2023/06/25 08:29:01;;;;;;;1.30;1.23;;;31.60;64.90;;;;;;5093422;28;20231;-80
2023/06/25 08:31:29;;;;;;;1.63;1.52;;;32.10;63.40;;;;;;5093080;28;20205;-81
2023/06/25 08:33:55;;;;;;;1.77;1.67;;;32.50;62.80;;;;;;5093219;28;20679;-81
2023/06/25 08:36:22;;;;;;;1.70;1.58;;;32.40;61.20;;;;;;5093465;28;20206;-82
2023/06/25 08:38:49;;;;;;;2.00;1.80;;;31.70;59.50;;;;;;5093445;28;20219;-82
2023/06/25 08:41:16;;;;;;;1.77;1.55;;;31.00;58.80;;;;;;5093145;28;20568;-81
2023/06/25 08:43:42;;;;;;;1.50;1.30;;;30.70;60.90;;;;;;5093413;28;20202;-80
2023/06/25 08:46:09;;;;;;;2.38;1.90;;;30.40;62.00;;;;;;5093925;28;20217;-81
2023/06/25 08:48:40;;;;;;;1.63;1.48;;;30.00;59.90;;;;;;5093369;28;20225;-82
2023/06/25 08:51:13;;;;;;;5.03;1.52;;;29.70;59.10;;;;;;5093152;28;20661;-81
2023/06/25 08:53:39;;;;;;;2.05;1.85;;;29.70;58.40;;;;;;5093413;28;20194;-81
2023/06/25 08:56:07;;;;;;;1.88;1.50;;;29.90;58.60;;;;;;5093307;28;20226;-81
2023/06/25 08:58:35;;;;;;;1.75;1.52;;;30.00;59.90;;;;;;5092982;28;20228;-82
2023/06/25 09:01:03;;;;;;;1.92;1.60;;;30.40;60.40;;;;;;5093269;28;20227;-82
2023/06/25 09:03:30;;;;;;;1.30;1.20;;;30.20;59.30;;;;;;5093252;28;20207;-81
2023/06/25 09:05:58;;;;;;;1.70;1.60;;;30.10;59.30;;;;;;5093178;28;20227;-81
2023/06/25 09:08:26;;;;;;;3.72;1.88;;;30.00;59.80;;;;;;5093168;28;20317;-82
2023/06/25 09:10:54;;;;;;;2.00;1.50;;;29.80;59.30;;;;;;5092882;28;20699;-81
2023/06/25 09:13:23;;;;;;;1.60;1.50;;;29.70;60.00;;;;;;5093164;28;20201;-81
2023/06/25 09:15:49;;;;;;;1.95;1.77;;;29.70;58.80;;;;;;5093161;28;20187;-81
2023/06/25 09:18:20;;;;;;;2.28;1.42;;;29.60;59.30;;;;;;5093081;28;20220;-81
2023/06/25 09:20:47;;;;;;;1.98;1.60;;;29.50;59.60;;;;;;5092930;28;20213;-81
2023/06/25 09:23:21;;;;;;;1.52;1.42;;;29.40;59.00;;;;;;5093131;28;20244;-80
2023/06/25 09:25:48;;;;;;;1.40;1.30;;;29.30;59.30;;;;;;5092747;28;20587;-81
2023/06/25 09:28:15;;;;;;;1.30;1.20;;;29.30;59.60;;;;;;5092992;28;20228;-81
2023/06/25 09:30:41;;;;;;;1.85;1.40;;;29.10;59.50;;;;;;5093053;28;20226;-81
2023/06/25 09:33:08;;;;;;;1.42;1.30;;;28.90;60.10;;;;;;5092697;28;20714;-81
2023/06/25 09:35:35;;;;;;;1.27;1.17;;;28.90;60.50;;;;;;5092974;28;20204;-81
2023/06/25 09:38:03;;;;;;;2.70;2.22;;;28.80;58.30;;;;;;5092919;28;20233;-82
2023/06/25 09:40:31;;;;;;;3.03;1.65;;;28.90;58.00;;;;;;5092927;28;20641;-81
2023/06/25 09:42:59;;;;;;;1.63;1.35;;;28.60;59.40;;;;;;5094934;28;20208;-81
2023/06/25 09:45:27;;;;;;;2.10;1.95;;;28.50;60.10;;;;;;5096486;28;20205;-81
2023/06/25 09:47:57;;;;;;;1.85;1.63;;;28.50;60.10;;;;;;5096476;28;20222;-81
2023/06/25 09:50:27;;;;;;;1.65;1.55;;;28.30;60.90;;;;;;5096491;28;20197;-80
2023/06/25 09:52:56;;;;;;;2.72;1.83;;;28.30;60.50;;;;;;5096162;28;20577;-81
2023/06/25 09:55:24;;;;;;;2.30;1.65;;;28.40;59.80;;;;;;5096416;28;20213;-80
2023/06/25 09:57:53;;;;;;;2.08;1.92;;;28.40;60.70;;;;;;5096237;28;20594;-82
2023/06/25 10:00:21;;;;;;;2.55;2.15;;;28.40;59.40;;;;;;5095460;28;20568;-81
2023/06/25 10:02:48;;;;;;;1.50;1.40;;;28.30;61.10;;;;;;5096138;28;20208;-81
2023/06/25 10:05:15;;;;;;;1.75;1.58;;;28.40;58.80;;;;;;5095996;28;20205;-81
2023/06/25 10:07:44;;;;;;;2.15;1.58;;;28.60;58.30;;;;;;5096094;28;20222;-81
2023/06/25 10:10:20;;;;;;;3.42;1.92;;;28.70;59.60;;;;;;5095310;28;20209;-81
2023/06/25 10:12:48;;;;;;;2.85;1.98;;;28.60;60.00;;;;;;5094212;28;20213;-81
2023/06/25 10:15:16;;;;;;;3.13;2.60;;;28.60;59.70;;;;;;5096036;28;20212;-81
2023/06/25 10:17:47;;;;;;;2.53;2.10;;;28.60;59.50;;;;;;5095913;28;20214;-80
2023/06/25 10:20:25;;;;;;;1.52;1.42;;;28.50;59.20;;;;;;5095957;28;20224;-81
2023/06/25 10:23:02;;;;;;;3.75;1.63;;;28.60;59.70;;;;;;5095471;28;20264;-81
2023/06/25 10:25:29;;;;;;;1.60;1.45;;;28.70;58.70;;;;;;5095755;28;20190;-81
2023/06/25 10:28:03;;;;;;;3.42;2.05;;;28.80;58.90;;;;;;5095719;28;20221;-81
2023/06/25 10:30:37;;;;;;;2.35;1.60;;;28.90;58.80;;;;;;5095767;28;20314;-81
2023/06/25 10:33:03;;;;;;;2.78;1.88;;;29.00;58.10;;;;;;5095403;28;20658;-81
2023/06/25 10:35:36;;;;;;;2.08;1.88;;;29.10;58.40;;;;;;5095589;28;20206;-81
2023/06/25 10:38:03;;;;;;;1.83;1.65;;;29.20;58.20;;;;;;5095241;28;20601;-82
2023/06/25 10:40:33;;;;;;;2.50;1.95;;;29.10;59.10;;;;;;5095511;28;20280;-83
2023/06/25 10:43:00;;;;;;;1.73;1.63;;;29.20;58.30;;;;;;5095530;28;20529;-80
2023/06/25 10:45:27;;;;;;;1.40;1.30;;;29.20;57.30;;;;;;5095355;28;20206;-82
2023/06/25 10:48:03;;;;;;;1.50;1.40;;;29.20;57.90;;;;;;5095322;28;20218;-81
2023/06/25 10:50:30;;;;;;;2.67;2.05;;;29.10;58.90;;;;;;5095321;28;20227;-82
2023/06/25 10:52:57;;;;;;;2.08;1.65;;;29.10;57.80;;;;;;5094650;28;20583;-82
2023/06/25 10:55:24;;;;;;;1.83;1.48;;;29.00;56.60;;;;;;5094922;28;20672;-82
2023/06/25 10:57:52;;;;;;;2.08;1.95;;;29.00;56.30;;;;;;5095146;28;20215;-82
2023/06/25 11:00:22;;;;;;;2.42;2.00;;;29.00;57.00;;;;;;5095121;28;20214;-81
2023/06/25 11:02:51;;;;;;;2.15;1.95;;;29.20;57.30;;;;;;5095106;28;20291;-82
2023/06/25 11:05:20;;;;;;;1.92;1.52;;;29.40;57.90;;;;;;5095079;28;20231;-82
2023/06/25 11:07:54;;;;;;;2.05;1.85;;;29.80;56.70;;;;;;5094876;28;20229;-82
2023/06/25 11:10:22;;;;;;;1.90;1.70;;;30.30;55.70;;;;;;5094704;28;20186;-81
2023/06/25 11:12:49;;;;;;;3.25;1.92;;;30.80;54.80;;;;;;5095004;28;20206;-82
2023/06/25 11:15:16;;;;;;;1.50;1.40;;;31.00;53.60;;;;;;5094930;28;20201;-82
2023/06/25 11:17:43;;;;;;;2.70;2.08;;;30.80;52.20;;;;;;5094732;28;20707;-82
2023/06/25 11:20:11;;;;;;;2.05;1.55;;;30.40;52.20;;;;;;5094491;28;20652;-81
2023/06/25 11:22:42;;;;;;;2.58;1.63;;;30.00;52.70;;;;;;5094345;28;20242;-82
2023/06/25 11:25:09;;;;;;;2.05;1.90;;;29.60;53.30;;;;;;5094722;28;20193;-82
2023/06/25 11:27:37;;;;;;;2.53;1.75;;;29.30;53.70;;;;;;5094209;28;20725;-81
2023/06/25 11:30:05;;;;;;;3.22;1.83;;;29.10;54.20;;;;;;5094561;28;20211;-83
2023/06/25 11:32:32;;;;;;;1.50;1.40;;;29.00;53.50;;;;;;5094531;28;20214;-82
2023/06/25 11:34:59;;;;;;;1.85;1.75;;;28.80;54.30;;;;;;5094199;28;20697;-82
2023/06/25 11:37:27;;;;;;;3.67;2.65;;;28.70;54.60;;;;;;5094397;28;20241;-82
2023/06/25 11:39:56;;;;;;;1.63;1.52;;;28.80;54.00;;;;;;5094419;28;20205;-81
2023/06/25 11:42:24;;;;;;;1.83;1.73;;;28.80;53.40;;;;;;5094347;28;20228;-82
2023/06/25 11:45:02;;;;;;;2.35;1.55;;;28.80;53.90;;;;;;5094706;28;20599;-83
2023/06/25 11:47:29;;;;;;;1.55;1.40;;;28.70;55.10;;;;;;5094164;28;20284;-81
2023/06/25 11:49:57;;;;;;;2.65;1.88;;;28.70;54.70;;;;;;5094210;28;20213;-83
2023/06/25 11:52:24;;;;;;;2.40;2.20;;;28.60;54.10;;;;;;5094161;28;20571;-82
2023/06/25 11:54:51;;;;;;;3.30;1.83;;;28.60;53.90;;;;;;5094109;28;20202;-82
2023/06/25 11:57:19;;;;;;;3.67;2.72;;;28.60;53.90;;;;;;5094028;28;20194;-81
2023/06/25 11:59:46;;;;;;;4.57;2.30;;;28.60;53.90;;;;;;5094124;28;20187;-81
2023/06/25 12:02:13;;;;;;;3.00;2.13;;;28.70;53.90;;;;;;5094002;28;20201;-81
2023/06/25 12:04:40;;;;;;;2.92;2.05;;;28.60;53.90;;;;;;5093266;28;20231;-82
2023/06/25 12:07:07;;;;;;;1.85;1.75;;;28.70;53.30;;;;;;5093829;28;20226;-82
2023/06/25 12:09:34;;;;;;;2.90;1.80;;;28.60;52.60;;;;;;5093851;28;20201;-82
2023/06/25 12:12:01;;;;;;;2.20;1.80;;;28.60;52.80;;;;;;5093997;28;20205;-82
2023/06/25 12:14:29;;;;;;;3.20;2.20;;;28.70;52.90;;;;;;5093555;28;20752;-82
2023/06/25 12:16:55;;;;;;;3.25;2.00;;;28.50;52.90;;;;;;5093814;28;20205;-82
2023/06/25 12:19:22;;;;;;;2.80;1.95;;;28.40;53.00;;;;;;5093429;28;20723;-82
2023/06/25 12:21:49;;;;;;;3.28;1.75;;;28.20;53.10;;;;;;5093355;28;20236;-81
2023/06/25 12:24:17;;;;;;;2.55;2.30;;;28.20;53.10;;;;;;5093720;28;20288;-81
2023/06/25 12:26:43;;;;;;;1.70;1.60;;;28.20;52.40;;;;;;5093610;28;20225;-81
2023/06/25 12:29:10;;;;;;;1.52;1.27;;;28.30;52.50;;;;;;5093533;28;20231;-81
2023/06/25 12:31:39;;;;;;;2.85;1.77;;;28.20;52.90;;;;;;5093308;28;20197;-81
2023/06/25 12:34:06;;;;;;;1.75;1.65;;;28.10;52.80;;;;;;5093272;28;20209;-81
2023/06/25 12:36:32;;;;;;;2.58;2.03;;;28.00;53.20;;;;;;5093545;28;20205;-81
2023/06/25 12:39:00;;;;;;;4.15;2.25;;;28.00;53.30;;;;;;5093445;28;20221;-82
2023/06/25 12:41:27;;;;;;;3.78;2.50;;;28.00;52.60;;;;;;5093503;28;20231;-82
2023/06/25 12:43:54;;;;;;;3.45;1.88;;;28.00;53.00;;;;;;5093461;28;20661;-81
2023/06/25 12:46:21;;;;;;;3.33;2.20;;;27.90;52.10;;;;;;5093357;28;20201;-81
2023/06/25 12:48:49;;;;;;;3.08;2.15;;;27.90;52.10;;;;;;5093380;28;20228;-81